Thunder radar more information blitzortung!


Radar de pluja more information rain snow radar


Visita la nostra xarxa de llocs de meteo:

Template documentation
and downloads

And another site



No particular awareness of the weather is required.    There are no Weather-warnings

Pagina Historial Weather Underground text

Diari Resum Novembre 22, 2017 Unitats:  Mètric    Imperial   Tant
« Previous Dia
SegĂźent Dia »
Diari Setmana Mensual Anual Personalitzada
  Maxima: Minima: Media:
Temperatura: 18.5 °C 4.0 °C 11.7 °C
Punt de rosada: 10.3 °C -2.1 °C 6.2 °C
Humitat: 85 % 55 % 70 %
Wind Speed: 13.0 km/h 0.0 km/h 3.5 km/h
RĂ fegues de vent: 13.0 km/h - -
Vent:- - SW
Pression baro: 1018.8 hPa 1014.8 hPa -
Precipitacions: 0.0 mm    
Historical Graphs
 
 
Dades de taula per Novembre 22, 2017
Temps Temperatura Punt de rosada Pression baro Vent Wind Speed RĂ fegues de vent Humitat Rainfall Rate (Hourly)
00:01 8.0 °C -0.5 °C 1018.8 hPa Calm     55 % 0.0 mm
00:10 4.7 °C -1.8 °C 1017.8 hPa Calm     63 % 0.0 mm
00:30 4.4 °C -2.1 °C 1017.8 hPa Calm     63 % 0.0 mm
00:40 4.3 °C -1.9 °C 1017.8 hPa Calm     64 % 0.0 mm
01:00 4.2 °C -2.0 °C 1017.8 hPa Calm     64 % 0.0 mm
01:10 4.2 °C -1.8 °C 1017.8 hPa Calm     65 % 0.0 mm
01:20 4.3 °C -1.7 °C 1017.8 hPa Calm     65 % 0.0 mm
01:30 4.3 °C -1.7 °C 1017.8 hPa WSW 1.6 km/h 1.6 km/h 65 % 0.0 mm
01:50 4.1 °C -1.9 °C 1016.8 hPa Calm   3.2 km/h 65 % 0.0 mm
02:10 4.0 °C -1.8 °C 1017.8 hPa Calm     66 % 0.0 mm
02:30 4.0 °C -1.8 °C 1016.8 hPa Calm     66 % 0.0 mm
02:40 4.2 °C -1.4 °C 1017.8 hPa Calm   1.6 km/h 67 % 0.0 mm
02:50 4.4 °C -1.2 °C 1017.8 hPa Calm     67 % 0.0 mm
03:00 4.3 °C -1.5 °C 1018.8 hPa Calm   1.6 km/h 66 % 0.0 mm
03:10 4.3 °C -1.5 °C 1017.8 hPa Calm     66 % 0.0 mm
03:20 4.7 °C -0.9 °C 1017.8 hPa Calm   1.6 km/h 67 % 0.0 mm
03:30 4.8 °C -1.0 °C 1017.8 hPa SW 1.6 km/h 3.2 km/h 66 % 0.0 mm
03:50 5.7 °C -0.2 °C 1017.8 hPa NE 1.6 km/h 4.8 km/h 66 % 0.0 mm
04:00 6.5 °C 0.4 °C 1017.8 hPa NE 3.2 km/h 4.8 km/h 65 % 0.0 mm
04:20 7.0 °C 0.9 °C 1017.8 hPa Calm   1.6 km/h 65 % 0.0 mm
04:30 7.3 °C 1.2 °C 1017.8 hPa Calm   3.2 km/h 65 % 0.0 mm
04:50 7.5 °C 0.9 °C 1017.8 hPa SSW 1.6 km/h 4.8 km/h 63 % 0.0 mm
10:55 7.9 °C 1.3 °C 1017.8 hPa WSW 3.7 km/h 3.7 km/h 63 % 0.0 mm
11:05 8.3 °C 1.7 °C 1018.8 hPa SW 3.7 km/h 3.7 km/h 63 % 0.0 mm
11:10 8.8 °C 2.1 °C 1018.8 hPa ESE 1.9 km/h   63 % 0.0 mm
11:15 9.4 °C 2.7 °C 1018.8 hPa Calm     63 % 0.0 mm
11:20 10.2 °C 3.4 °C 1017.8 hPa South 1.9 km/h 1.9 km/h 63 % 0.0 mm
11:25 10.8 °C 3.8 °C 1017.8 hPa SSW 1.9 km/h   62 % 0.0 mm
11:30 11.4 °C 4.4 °C 1017.8 hPa SSW 1.9 km/h 1.9 km/h 62 % 0.0 mm
11:40 12.4 °C 5.1 °C 1017.8 hPa SE 3.7 km/h 3.7 km/h 61 % 0.0 mm
11:45 12.8 °C 5.4 °C 1017.8 hPa ESE 3.2 km/h 3.2 km/h 61 % 0.0 mm
11:50 12.7 °C 5.1 °C 1017.8 hPa NNE 3.7 km/h 3.7 km/h 60 % 0.0 mm
11:55 12.9 °C 5.6 °C 1017.8 hPa NE 3.7 km/h 3.7 km/h 61 % 0.0 mm
12:05 13.5 °C 6.1 °C 1017.8 hPa ESE 3.7 km/h 3.7 km/h 61 % 0.0 mm
12:10 13.8 °C 6.4 °C 1017.8 hPa ESE 3.7 km/h 3.7 km/h 61 % 0.0 mm
12:15 14.3 °C 6.9 °C 1017.8 hPa SW 3.9 km/h 3.9 km/h 61 % 0.0 mm
12:20 14.8 °C 7.6 °C 1017.8 hPa SW 1.9 km/h 1.9 km/h 62 % 0.0 mm
12:25 15.3 °C 8.3 °C 1017.8 hPa SW 4.7 km/h 4.7 km/h 63 % 0.0 mm
12:26 15.2 °C 8.2 °C 1017.8 hPa SW 7.4 km/h 7.4 km/h 63 % 0.0 mm
12:31 15.2 °C 8.2 °C 1017.8 hPa WSW 4.2 km/h 4.2 km/h 63 % 0.0 mm
12:36 15.6 °C 8.6 °C 1017.8 hPa SSW 5.6 km/h 5.6 km/h 63 % 0.0 mm
12:41 15.9 °C 8.8 °C 1017.8 hPa WSW 3.7 km/h 3.7 km/h 63 % 0.0 mm
12:56 16.8 °C 9.7 °C 1016.8 hPa SW 5.6 km/h 5.6 km/h 63 % 0.0 mm
13:01 17.0 °C 9.7 °C 1016.8 hPa West 7.4 km/h 7.4 km/h 62 % 0.0 mm
13:11 17.1 °C 9.5 °C 1016.8 hPa South 3.7 km/h 3.7 km/h 61 % 0.0 mm
13:16 17.4 °C 9.8 °C 1016.8 hPa SSW 5.6 km/h 5.6 km/h 61 % 0.0 mm
13:21 17.4 °C 9.8 °C 1015.8 hPa SSW 5.6 km/h 5.6 km/h 61 % 0.0 mm
13:31 17.0 °C 9.4 °C 1015.8 hPa WSW 5.8 km/h 5.8 km/h 61 % 0.0 mm
13:36 17.3 °C 9.7 °C 1015.8 hPa SW 5.6 km/h 5.6 km/h 61 % 0.0 mm
13:41 17.3 °C 9.4 °C 1015.8 hPa South 9.3 km/h 9.3 km/h 60 % 0.0 mm
13:46 17.5 °C 9.7 °C 1015.8 hPa South 7.4 km/h 7.4 km/h 60 % 0.0 mm
13:56 17.6 °C 9.7 °C 1015.8 hPa South 7.4 km/h 7.4 km/h 60 % 0.0 mm
14:06 17.8 °C 9.9 °C 1016.8 hPa South 7.4 km/h 7.4 km/h 60 % 0.0 mm
14:11 17.9 °C 10.0 °C 1016.8 hPa SSW 5.6 km/h 5.6 km/h 60 % 0.0 mm
14:16 17.9 °C 10.0 °C 1016.8 hPa South 9.0 km/h 9.0 km/h 60 % 0.0 mm
14:21 17.7 °C 9.6 °C 1014.8 hPa West 9.3 km/h 9.3 km/h 59 % 0.0 mm
14:31 18.2 °C 10.3 °C 1014.8 hPa WSW 7.4 km/h 7.4 km/h 60 % 0.0 mm
14:41 18.0 °C 9.9 °C 1015.8 hPa SW 9.3 km/h 9.3 km/h 59 % 0.0 mm
14:51 18.0 °C 10.1 °C 1015.8 hPa SW 4.2 km/h 4.2 km/h 60 % 0.0 mm
14:56 18.3 °C 10.2 °C 1015.8 hPa SSW 5.6 km/h 5.6 km/h 59 % 0.0 mm
15:06 18.2 °C 10.1 °C 1014.8 hPa SW 8.7 km/h 8.7 km/h 59 % 0.0 mm
15:16 18.0 °C 9.9 °C 1014.8 hPa WSW 9.3 km/h 9.3 km/h 59 % 0.0 mm
15:21 18.1 °C 9.9 °C 1015.8 hPa West 9.3 km/h 9.3 km/h 59 % 0.0 mm
15:26 18.1 °C 9.9 °C 1015.8 hPa SW 9.3 km/h 9.3 km/h 59 % 0.0 mm
15:31 18.1 °C 9.9 °C 1015.8 hPa SSW 13.0 km/h 13.0 km/h 59 % 0.0 mm
15:36 18.1 °C 9.9 °C 1015.8 hPa South 9.0 km/h 9.0 km/h 59 % 0.0 mm
15:41 18.1 °C 9.9 °C 1015.8 hPa WSW 3.7 km/h 3.7 km/h 59 % 0.0 mm
15:46 18.4 °C 10.2 °C 1015.8 hPa SW 3.7 km/h 3.7 km/h 59 % 0.0 mm
15:51 18.5 °C 10.3 °C 1015.8 hPa SSW 3.7 km/h 3.7 km/h 59 % 0.0 mm
16:06 17.8 °C 9.7 °C 1015.8 hPa SSW 11.9 km/h 11.9 km/h 59 % 0.0 mm
16:11 17.6 °C 9.5 °C 1015.8 hPa WSW 5.6 km/h 5.6 km/h 59 % 0.0 mm
16:16 17.7 °C 9.6 °C 1015.8 hPa SW 5.8 km/h 5.8 km/h 59 % 0.0 mm
16:21 17.7 °C 9.8 °C 1015.8 hPa WSW 9.3 km/h 9.3 km/h 60 % 0.0 mm
16:22 17.7 °C 9.8 °C 1015.8 hPa SSW 9.3 km/h 9.3 km/h 60 % 0.0 mm
16:32 17.3 °C 9.4 °C 1015.8 hPa WSW 3.7 km/h 3.7 km/h 60 % 0.0 mm
16:37 17.2 °C 9.4 °C 1015.8 hPa SSW 5.6 km/h 5.6 km/h 60 % 0.0 mm
16:42 17.1 °C 9.3 °C 1015.8 hPa SW 9.3 km/h 9.3 km/h 60 % 0.0 mm
16:52 16.7 °C 9.1 °C 1015.8 hPa SW 3.7 km/h 3.7 km/h 61 % 0.0 mm
17:07 16.2 °C 8.9 °C 1015.8 hPa SW 3.7 km/h   62 % 0.0 mm
17:12 16.0 °C 8.9 °C 1015.8 hPa SW 5.3 km/h 5.3 km/h 63 % 0.0 mm
17:17 15.7 °C 8.7 °C 1015.8 hPa WSW 3.7 km/h 3.7 km/h 63 % 0.0 mm
17:22 15.5 °C 8.5 °C 1015.8 hPa SW 5.6 km/h 5.6 km/h 63 % 0.0 mm
17:27 15.3 °C 8.5 °C 1015.8 hPa WSW 3.7 km/h 3.7 km/h 64 % 0.0 mm
17:37 14.8 °C 8.3 °C 1015.8 hPa WSW 3.7 km/h 3.7 km/h 65 % 0.0 mm
17:42 14.7 °C 8.2 °C 1015.8 hPa WNW 2.3 km/h 2.6 km/h 65 % 0.0 mm
17:52 14.4 °C 8.1 °C 1015.8 hPa WSW 3.7 km/h 3.7 km/h 66 % 0.0 mm
17:57 14.3 °C 8.1 °C 1015.8 hPa West 3.7 km/h 3.7 km/h 66 % 0.0 mm
18:02 14.2 °C 8.2 °C 1016.8 hPa WSW 3.7 km/h 3.7 km/h 67 % 0.0 mm
18:07 14.0 °C 7.9 °C 1016.8 hPa West 3.7 km/h 3.7 km/h 67 % 0.0 mm
18:12 14.0 °C 8.2 °C 1016.8 hPa SW 5.6 km/h 5.6 km/h 68 % 0.0 mm
18:17 14.0 °C 8.4 °C 1016.8 hPa WSW 5.6 km/h 5.6 km/h 69 % 0.0 mm
18:22 13.9 °C 8.3 °C 1016.8 hPa WSW 5.6 km/h 5.6 km/h 69 % 0.0 mm
18:27 13.8 °C 8.4 °C 1016.8 hPa WNW 3.7 km/h 3.7 km/h 70 % 0.0 mm
18:32 13.7 °C 8.3 °C 1015.8 hPa WNW 5.6 km/h 5.6 km/h 70 % 0.0 mm
18:37 13.5 °C 8.3 °C 1015.8 hPa South 6.9 km/h 6.9 km/h 71 % 0.0 mm
18:47 13.3 °C 8.3 °C 1016.8 hPa WSW 2.3 km/h 3.2 km/h 72 % 0.0 mm
18:52 13.1 °C 8.4 °C 1016.8 hPa SW 4.2 km/h 4.2 km/h 73 % 0.0 mm
18:57 13.0 °C 8.3 °C 1016.8 hPa WSW 3.7 km/h 3.7 km/h 73 % 0.0 mm
19:07 12.9 °C 8.2 °C 1016.8 hPa WSW 4.2 km/h 4.2 km/h 73 % 0.0 mm
19:17 12.8 °C 8.3 °C 1016.8 hPa SW 7.4 km/h 7.4 km/h 74 % 0.0 mm
19:32 12.5 °C 8.4 °C 1016.8 hPa SW 3.7 km/h 3.7 km/h 76 % 0.0 mm
19:38 12.4 °C 8.3 °C 1016.8 hPa West 3.9 km/h 3.9 km/h 76 % 0.0 mm
19:43 12.3 °C 8.2 °C 1016.8 hPa West 3.7 km/h 3.7 km/h 76 % 0.0 mm
19:45 6.8 °C 4.1 °C 1016.8 hPa Calm     83 % 0.0 mm
19:48 12.2 °C 8.1 °C 1016.8 hPa WSW 5.6 km/h 5.6 km/h 76 % 0.0 mm
19:53 12.1 °C 8.0 °C 1016.8 hPa SW 3.7 km/h 3.7 km/h 76 % 0.0 mm
19:55 6.8 °C 4.3 °C 1017.8 hPa SW 1.6 km/h 3.2 km/h 84 % 0.0 mm
19:58 12.0 °C 7.9 °C 1016.8 hPa WSW 4.7 km/h 4.7 km/h 76 % 0.0 mm
20:03 11.9 °C 7.8 °C 1016.8 hPa WSW 4.2 km/h 4.2 km/h 76 % 0.0 mm
20:05 6.8 °C 4.3 °C 1017.8 hPa Calm     84 % 0.0 mm
20:13 11.8 °C 7.9 °C 1016.8 hPa WSW 5.6 km/h 5.6 km/h 77 % 0.0 mm
20:15 6.9 °C 4.4 °C 1017.8 hPa Calm   1.6 km/h 84 % 0.0 mm
20:23 11.7 °C 8.0 °C 1015.8 hPa WSW 3.7 km/h 3.7 km/h 78 % 0.0 mm
20:25 6.8 °C 4.3 °C 1017.8 hPa Calm     84 % 0.0 mm
20:45 6.3 °C 3.8 °C 1017.8 hPa Calm   1.6 km/h 84 % 0.0 mm
20:48 11.7 °C 8.2 °C 1016.8 hPa WSW 3.7 km/h 3.7 km/h 79 % 0.0 mm
20:53 11.6 °C 8.1 °C 1016.8 hPa SW 1.9 km/h   79 % 0.0 mm
20:58 11.6 °C 8.1 °C 1016.8 hPa SW 3.9 km/h 3.9 km/h 79 % 0.0 mm
21:08 11.4 °C 7.9 °C 1016.8 hPa WSW 3.7 km/h 3.7 km/h 79 % 0.0 mm
21:15 6.0 °C 3.3 °C 1017.8 hPa WSW 3.2 km/h 3.2 km/h 83 % 0.0 mm
21:18 11.3 °C 8.0 °C 1016.8 hPa West 1.9 km/h   80 % 0.0 mm
21:25 5.7 °C 3.1 °C 1017.8 hPa Calm   3.2 km/h 83 % 0.0 mm
21:28 11.1 °C 7.8 °C 1016.8 hPa Calm     80 % 0.0 mm
21:33 11.1 °C 7.8 °C 1016.8 hPa Calm     80 % 0.0 mm
21:34 11.1 °C 7.9 °C 1016.8 hPa Calm     81 % 0.0 mm
21:35 5.8 °C 3.1 °C 1017.8 hPa SW 3.2 km/h 3.2 km/h 83 % 0.0 mm
21:44 11.2 °C 7.9 °C 1016.8 hPa Calm     80 % 0.0 mm
21:49 11.2 °C 8.1 °C 1016.8 hPa Calm     81 % 0.0 mm
21:54 11.3 °C 8.0 °C 1016.8 hPa WNW 3.7 km/h 3.7 km/h 80 % 0.0 mm
21:55 6.0 °C 3.5 °C 1017.8 hPa Calm     84 % 0.0 mm
21:59 11.2 °C 7.9 °C 1016.8 hPa North 2.3 km/h   80 % 0.0 mm
22:04 11.0 °C 7.9 °C 1016.8 hPa Calm     81 % 0.0 mm
22:09 10.9 °C 7.6 °C 1016.8 hPa Calm     80 % 0.0 mm
22:24 10.6 °C 7.5 °C 1016.8 hPa Calm     81 % 0.0 mm
22:25 6.5 °C 4.2 °C 1017.8 hPa Calm   1.6 km/h 85 % 0.0 mm
22:29 10.4 °C 7.1 °C 1016.8 hPa West 3.7 km/h 3.7 km/h 80 % 0.0 mm
22:34 10.4 °C 7.1 °C 1016.8 hPa WSW 3.7 km/h 3.7 km/h 80 % 0.0 mm
22:39 10.4 °C 7.1 °C 1016.8 hPa WSW 3.7 km/h 3.7 km/h 80 % 0.0 mm
22:44 10.3 °C 7.2 °C 1016.8 hPa SW 2.3 km/h 2.3 km/h 81 % 0.0 mm
22:54 9.8 °C 6.5 °C 1017.8 hPa SW 3.2 km/h 3.2 km/h 80 % 0.0 mm
22:55 5.8 °C 3.3 °C 1017.8 hPa SW 3.2 km/h 4.8 km/h 84 % 0.0 mm
22:59 9.7 °C 6.4 °C 1017.8 hPa SW 1.9 km/h 1.9 km/h 80 % 0.0 mm
23:04 9.6 °C 6.5 °C 1017.8 hPa SSE 1.9 km/h   81 % 0.0 mm
23:05 5.6 °C 2.9 °C 1017.8 hPa SW 3.2 km/h 6.4 km/h 83 % 0.0 mm
23:09 9.5 °C 6.4 °C 1017.8 hPa WSW 2.3 km/h 2.3 km/h 81 % 0.0 mm
23:14 9.4 °C 6.3 °C 1017.8 hPa SW 3.7 km/h 3.7 km/h 81 % 0.0 mm
23:15 5.4 °C 2.7 °C 1018.8 hPa SW 3.2 km/h 4.8 km/h 83 % 0.0 mm
23:19 9.3 °C 6.2 °C 1017.8 hPa Calm     81 % 0.0 mm
23:24 9.2 °C 6.1 °C 1017.8 hPa SW 3.7 km/h 3.7 km/h 81 % 0.0 mm
23:25 5.6 °C 3.1 °C 1017.8 hPa WSW 1.6 km/h 3.2 km/h 84 % 0.0 mm
23:29 9.1 °C 5.8 °C 1017.8 hPa SW 4.7 km/h 4.7 km/h 80 % 0.0 mm
23:34 9.0 °C 5.7 °C 1017.8 hPa SW 3.7 km/h 3.7 km/h 80 % 0.0 mm
23:35 5.8 °C 3.4 °C 1017.8 hPa Calm   1.6 km/h 85 % 0.0 mm
23:39 8.8 °C 5.6 °C 1017.8 hPa SW 3.7 km/h 3.7 km/h 80 % 0.0 mm
23:44 8.7 °C 5.6 °C 1017.8 hPa SW 3.7 km/h 3.7 km/h 81 % 0.0 mm
23:45 6.5 °C 4.2 °C 1017.8 hPa West 1.6 km/h 3.2 km/h 85 % 0.0 mm
23:54 8.5 °C 5.6 °C 1017.8 hPa NNE 3.7 km/h 3.7 km/h 82 % 0.0 mm
23:55 6.9 °C 4.6 °C 1017.8 hPa Calm   3.2 km/h 85 % 0.0 mm
23:59 8.5 °C 5.6 °C 1017.8 hPa NW 3.7 km/h 3.7 km/h 82 % 0.0 mm
Meteo Sesrovires
Elogis d' Weather Underground - 3.5 mb

Guio original per  Jim McMurry - jmcmurry@mwt.net Adaptat per a la plantilla per  Wim van der Kuil - Leuven-Template.eu

Trobareu la nostra informacio del temps tambe a:

Weather Underground

AWEKAS